Latest Weather Observations for Lake Julius

IDQ60801

Issued at 7:22 pm EST Wednesday 17 July 2024 (issued every 10 minutes, with the page automatically refreshed every 10 minutes)

About weather observations | Map of weather stations | Latest weather observations for QLD | Other Formats
Station Details ID: 029181 Name: LAKE JULIUS AWS Lat: -20.12 Lon: 139.73 Height: 237.0 m
Data from the previous 72 hours. | See also: Recent months at Lake Julius
Date/Time
EST
Temp
°C
App
Temp
°C
Dew
Point
°C
Rel
Hum
%
Delta-T
°C
Wind Press
QNH
hPa
Press
MSL
hPa
Rain since
9am
mm
Dir  Spd
km/h
Gust
km/h
Spd
kts
Gust
kts
17/07:00pm 15.8 12.3 -3.1 27 7.6 S 6 9 3 5 - - 0.0
17/06:30pm 16.7 13.1 -2.4 27 7.9 S 7 11 4 6 - - 0.0
17/06:00pm 17.6 12.7 -3.2 24 8.5 S 13 20 7 11 - - 0.0
17/05:30pm 18.4 13.9 -3.1 23 8.9 S 11 20 6 11 - - 0.0
17/05:00pm 18.7 13.9 -2.8 23 9.0 SSE 13 24 7 13 - - 0.0
17/04:30pm 18.7 12.7 -2.8 23 9.0 SE 19 30 10 16 - - 0.0
17/04:00pm 19.0 13.8 -2.6 23 9.1 SE 15 22 8 12 - - 0.0
17/03:30pm 18.8 13.4 -1.6 25 8.7 SE 17 30 9 16 - - 0.0
17/03:00pm 18.6 13.1 -1.8 25 8.7 SE 17 28 9 15 - - 0.0
17/02:30pm 18.5 13.2 -0.8 27 8.4 SSE 17 30 9 16 - - 0.0
17/02:00pm 18.0 12.7 -0.3 29 8.0 SSE 17 28 9 15 - - 0.0
17/01:30pm 17.5 13.1 0.2 31 7.6 SSE 13 24 7 13 - - 0.0
17/01:00pm 17.7 12.4 1.7 34 7.3 SSE 19 30 10 16 - - 0.0
17/12:30pm 16.5 11.5 1.4 36 6.7 SSE 17 30 9 16 - - 0.0
17/12:00pm 16.4 11.6 2.4 39 6.4 SSE 17 30 9 16 - - 0.0
17/11:30am 15.3 9.9 1.4 39 6.1 SSE 19 33 10 18 - - 0.0
17/11:00am 14.9 9.6 2.8 44 5.5 SSE 20 30 11 16 - - 0.0
17/10:30am 14.2 8.8 2.5 45 5.2 SSE 20 32 11 17 - - 0.0
17/10:00am 13.5 8.2 3.0 49 4.7 S 20 33 11 18 - - 0.0
17/09:30am 12.9 8.2 3.3 52 4.3 S 17 26 9 14 - - 0.0
17/09:00am 11.9 7.9 2.9 54 4.0 SSE 13 26 7 14 - - 0.0
17/08:30am 10.0 7.3 3.5 64 2.9 S 7 15 4 8 - - 0.0
17/08:00am 7.5 6.1 3.7 77 1.6 CALM 0 0 0 0 - - 0.0
17/07:30am 5.2 3.5 2.0 80 1.3 CALM 0 0 0 0 - - 0.0
17/07:00am 5.7 4.1 2.2 78 1.4 CALM 0 0 0 0 - - 0.0
17/06:30am 5.9 4.3 2.7 80 1.3 CALM 0 0 0 0 - - 0.0
17/06:00am 6.3 4.7 2.6 77 1.5 CALM 0 0 0 0 - - 0.0
17/05:30am 6.8 5.1 1.9 71 2.0 CALM 0 0 0 0 - - 0.0
17/05:00am 7.1 5.4 1.8 69 2.2 CALM 0 0 0 0 - - 0.0
17/04:30am 7.6 5.9 1.7 66 2.4 CALM 0 0 0 0 - - 0.0
17/04:00am 7.8 6.1 1.6 65 2.6 CALM 0 0 0 0 - - 0.0
17/03:30am 8.0 5.9 1.6 64 2.7 NE 2 4 1 2 - - 0.0
17/03:00am 8.4 5.9 1.6 62 2.8 NNE 4 6 2 3 - - 0.0
17/02:30am 10.1 8.3 1.5 55 3.6 CALM 0 0 0 0 - - 0.0
17/02:00am 11.7 9.2 1.4 49 4.4 SSW 4 6 2 3 - - 0.0
17/01:30am 12.3 9.4 1.3 47 4.7 SSW 6 6 3 3 - - 0.0
17/01:00am 12.7 9.6 1.1 45 5.0 SSW 7 9 4 5 - - 0.0
17/12:30am 13.1 9.6 1.1 44 5.2 SSW 9 13 5 7 - - 0.0
17/12:00am 13.3 10.1 1.0 43 5.3 SSW 7 9 4 5 - - 0.0
 
Date/Time
EST
Temp
°C
App
Temp
°C
Dew
Point
°C
Rel
Hum
%
Delta-T
°C
Wind Press
QNH
hPa
Press
MSL
hPa
Rain since
9am
mm
Dir  Spd
km/h
Gust
km/h
Spd
kts
Gust
kts
16/11:30pm 13.4 10.3 1.1 43 5.3 S 7 11 4 6 - - 0.0
16/11:00pm 13.7 11.2 1.4 43 5.4 S 4 7 2 4 - - 0.0
16/10:30pm 14.7 11.1 0.9 39 6.0 SSW 9 17 5 9 - - 0.0
16/10:00pm 15.4 11.4 0.8 37 6.4 SSW 11 17 6 9 - - 0.0
16/09:30pm 15.9 12.0 0.9 36 6.6 SSW 11 17 6 9 - - 0.0
16/09:00pm 16.4 11.3 0.5 34 7.0 SSW 17 26 9 14 - - 0.0
16/08:30pm 16.8 12.1 0.9 34 7.0 SSW 15 22 8 12 - - 0.0
16/08:00pm 17.2 12.9 0.8 33 7.3 SSW 13 19 7 10 - - 0.0
16/07:30pm 17.7 13.0 0.8 32 7.5 SSW 15 22 8 12 - - 0.0
16/07:00pm 18.2 13.9 0.8 31 7.8 SSW 13 17 7 9 - - 0.0
16/06:30pm 18.9 13.9 1.4 31 8.0 SSW 17 24 9 13 - - 0.0
16/06:00pm 19.5 14.1 1.5 30 8.3 SSW 19 30 10 16 - - 0.0
16/05:30pm 20.2 15.6 1.6 29 8.6 SSW 15 26 8 14 - - 0.0
16/05:00pm 20.5 16.0 1.9 29 8.7 S 15 28 8 15 - - 0.0
16/04:30pm 21.1 16.5 1.4 27 9.1 SSW 15 28 8 15 - - 0.0
16/04:00pm 21.5 16.5 1.2 26 9.4 S 17 30 9 16 - - 0.0
16/03:30pm 20.9 16.2 1.2 27 9.1 SSW 15 26 8 14 - - 0.0
16/03:00pm 21.2 16.6 1.5 27 9.2 SSE 15 24 8 13 - - 0.0
16/02:30pm 21.3 16.4 2.1 28 9.0 S 17 28 9 15 - - 0.0
16/02:00pm 21.0 15.7 1.8 28 9.0 S 19 32 10 17 - - 0.0
16/01:30pm 20.6 16.1 2.4 30 8.6 SSE 15 33 8 18 - - 0.0
16/01:00pm 20.0 15.1 1.9 30 8.4 S 17 28 9 15 - - 0.0
16/12:30pm 19.9 15.0 1.8 30 8.4 SSE 17 30 9 16 - - 0.0
16/12:00pm 19.7 13.9 2.1 31 8.2 S 22 33 12 18 - - 0.0
16/11:30am 18.8 13.0 2.2 33 7.7 S 22 37 12 20 - - 0.0
16/11:00am 17.9 12.2 2.6 36 7.1 S 22 33 12 18 - - 0.0
16/10:30am 17.9 13.6 3.0 37 7.0 S 15 22 8 12 - - 0.0
16/10:00am 16.6 13.0 3.0 40 6.3 S 11 17 6 9 - - 0.0
16/09:30am 15.3 12.2 3.5 45 5.5 S 9 19 5 10 - - 0.0
16/09:00am 13.8 11.2 4.4 53 4.4 SSW 7 9 4 5 - - 0.0
16/08:30am 12.2 9.2 3.9 57 3.8 SSW 9 11 5 6 - - 0.0
16/08:00am 9.8 6.8 4.2 68 2.5 SSW 9 9 5 5 - - 0.0
16/07:30am 7.8 5.4 4.2 78 1.6 SSW 6 7 3 4 - - 0.0
16/07:00am 8.1 6.7 3.8 74 1.9 CALM 0 2 0 1 - - 0.0
16/06:30am 8.5 7.0 2.9 68 2.4 CALM 0 0 0 0 - - 0.0
16/06:00am 9.2 7.7 3.2 66 2.6 CALM 0 0 0 0 - - 0.0
16/05:30am 11.4 8.7 2.9 56 3.8 SW 6 6 3 3 - - 0.0
16/05:00am 11.8 9.1 2.5 53 4.1 SW 6 6 3 3 - - 0.0
16/04:30am 11.8 9.2 3.1 55 3.9 SSW 6 7 3 4 - - 0.0
16/04:00am 12.1 9.3 3.1 54 4.0 SSW 7 7 4 4 - - 0.0
16/03:30am 12.6 9.4 3.0 52 4.3 SSW 9 13 5 7 - - 0.0
16/03:00am 13.0 9.4 2.8 50 4.6 SSW 11 17 6 9 - - 0.0
16/02:30am 13.2 9.6 2.7 49 4.7 SSW 11 17 6 9 - - 0.0
16/02:00am 13.6 10.3 2.5 47 5.0 SSW 9 13 5 7 - - 0.0
16/01:30am 13.8 10.1 2.4 46 5.1 SSW 11 13 6 7 - - 0.0
16/01:00am 13.9 10.6 2.2 45 5.2 SSW 9 17 5 9 - - 0.0
16/12:30am 13.9 10.9 2.2 45 5.2 S 7 15 4 8 - - 0.0
16/12:00am 14.3 10.9 1.9 43 5.5 SSW 9 15 5 8 - - 0.0
 
Date/Time
EST
Temp
°C
App
Temp
°C
Dew
Point
°C
Rel
Hum
%
Delta-T
°C
Wind Press
QNH
hPa
Press
MSL
hPa
Rain since
9am
mm
Dir  Spd
km/h
Gust
km/h
Spd
kts
Gust
kts
15/11:30pm 14.7 10.9 1.6 41 5.8 SSW 11 15 6 8 - - 0.0
15/11:00pm 14.8 11.8 1.7 41 5.8 SSW 7 9 4 5 - - 0.0
15/10:30pm 15.4 12.2 0.8 37 6.4 SSW 7 9 4 5 - - 0.0
15/10:00pm 16.1 12.9 0.7 35 6.8 SSW 7 9 4 5 - - 0.0
15/09:30pm 16.9 13.3 0.5 33 7.2 SSW 9 13 5 7 - - 0.0
15/09:00pm 17.3 13.6 0.0 31 7.6 SSW 9 11 5 6 - - 0.0
15/08:30pm 18.0 14.3 0.2 30 7.9 S 9 17 5 9 - - 0.0
15/08:00pm 18.2 14.7 -1.1 27 8.3 SSW 7 9 4 5 - - 0.0
15/07:30pm 18.5 15.1 -0.8 27 8.4 S 7 11 4 6 - - 0.0
15/07:00pm 19.2 15.7 -1.3 25 8.9 S 7 9 4 5 - - 0.0
15/06:30pm 20.3 15.6 -2.1 22 9.6 S 13 20 7 11 - - 0.0
15/06:00pm 20.8 15.9 -3.0 20 10.1 S 13 20 7 11 - - 0.0
15/05:30pm 21.8 16.4 -4.3 17 10.9 SSW 15 22 8 12 - - 0.0
15/05:00pm 22.0 16.8 -2.7 19 10.7 S 15 22 8 12 - - 0.0
15/04:30pm 22.4 17.2 -3.1 18 11.0 S 15 20 8 11 - - 0.0
15/04:00pm 23.0 18.9 -3.3 17 11.3 SSW 9 19 5 10 - - 0.0
15/03:30pm 22.9 18.9 -2.6 18 11.1 SSW 9 17 5 9 - - 0.0
15/03:00pm 22.7 19.2 -1.4 20 10.7 S 7 17 4 9 - - 0.0
15/02:30pm 21.9 17.6 -1.4 21 10.3 S 11 19 6 10 - - 0.0
15/02:00pm 21.7 17.5 -0.9 22 10.1 SSE 11 20 6 11 - - 0.0
15/01:30pm 21.0 16.2 -2.8 20 10.2 SSE 13 24 7 13 - - 0.0
15/01:00pm 20.7 16.3 0.5 26 9.2 SSE 13 20 7 11 - - 0.0
15/12:30pm 19.8 16.2 0.3 27 8.8 S 9 17 5 9 - - 0.0
15/12:00pm 19.3 16.1 3.1 34 7.7 SSW 9 17 5 9 - - 0.0
15/11:30am 18.8 15.6 3.0 35 7.4 SSE 9 17 5 9 - - 0.0
15/11:00am 18.0 15.0 3.9 39 6.7 S 9 20 5 11 - - 0.0
15/10:30am 17.1 12.8 3.4 40 6.4 SSE 15 24 8 13 - - 0.0
15/10:00am 16.1 12.2 3.5 43 5.9 S 13 24 7 13 - - 0.0
15/09:30am 15.2 12.1 3.4 45 5.4 SSE 9 20 5 11 - - 0.0
15/09:00am 14.1 11.0 3.8 50 4.7 S 9 17 5 9 - - 0.0
15/08:30am 12.7 10.3 4.2 56 3.9 S 6 13 3 7 - - 0.0
15/08:00am 11.0 9.6 3.8 61 3.2 CALM 0 0 0 0 - - 0.0
15/07:30am 9.7 8.1 2.6 61 3.1 CALM 0 0 0 0 - - 0.0
15/07:00am 9.8 8.2 2.4 60 3.2 CALM 0 0 0 0 - - 0.0
15/06:30am 9.3 7.3 2.4 62 3.0 SSW 2 6 1 3 - - 0.0
15/06:00am 9.9 7.5 2.0 58 3.4 WSW 4 7 2 4 - - 0.0
15/05:30am 9.0 7.3 1.7 60 3.1 CALM 0 0 0 0 - - 0.0
15/05:00am 9.3 7.7 2.2 61 3.0 CALM 0 0 0 0 - - 0.0
15/04:30am 10.7 9.0 1.8 54 3.8 CALM 0 4 0 2 - - 0.0
15/04:00am 10.3 8.4 2.7 59 3.3 SSE 2 4 1 2 - - 0.0
15/03:30am 12.0 10.3 1.9 50 4.4 CALM 0 0 0 0 - - 0.0
15/03:00am 11.2 9.5 2.0 53 4.0 CALM 0 0 0 0 - - 0.0
15/02:30am 12.0 10.4 2.5 52 4.2 CALM 0 0 0 0 - - 0.0
15/02:00am 12.6 9.6 1.9 48 4.7 SSW 7 9 4 5 - - 0.0
15/01:30am 14.2 11.6 1.2 41 5.7 SSW 4 6 2 3 - - 0.0
15/01:00am 13.2 11.5 1.8 46 5.0 CALM 0 0 0 0 - - 0.0
15/12:30am 14.1 12.4 1.7 43 5.5 CALM 0 0 0 0 - - 0.0
15/12:00am 14.1 12.5 2.4 45 5.2 CALM 0 6 0 3 - - 0.0
 
Date/Time
EST
Temp
°C
App
Temp
°C
Dew
Point
°C
Rel
Hum
%
Delta-T
°C
Wind Press
QNH
hPa
Press
MSL
hPa
Rain since
9am
mm
Dir  Spd
km/h
Gust
km/h
Spd
kts
Gust
kts
14/11:30pm 15.7 12.6 1.4 38 6.3 SSW 7 9 4 5 - - 0.0
14/11:00pm 16.0 13.2 2.1 39 6.3 SSW 6 15 3 8 - - 0.0
14/10:30pm 16.0 13.2 3.1 42 5.9 SSW 7 7 4 4 - - 0.0
14/10:00pm 15.1 12.3 5.0 51 4.8 SSW 9 9 5 5 - - 0.0
14/09:30pm 14.9 13.5 3.4 46 5.3 CALM 0 0 0 0 - - 0.0
14/09:00pm 15.3 13.9 3.5 45 5.5 CALM 0 0 0 0 - - 0.0
14/08:30pm 16.4 14.9 3.1 41 6.2 CALM 0 0 0 0 - - 0.0
14/08:00pm 16.9 15.4 3.2 40 6.4 CALM 0 0 0 0 - - 0.0
14/07:30pm 17.8 16.3 2.9 37 6.9 CALM 0 0 0 0 - - 0.0

Other formats

Comma delimited format used in spreadsheet applications
http://www.bom.gov.au/fwo/IDQ60801/IDQ60801.94348.axf

JavaScript Object Notation format (JSON) in row-major order
http://www.bom.gov.au/fwo/IDQ60801/IDQ60801.94348.json

Data quality

Most of these data are generated automatically and are frequently updated. Quality checks on data are not normally performed. It is possible for incorrect values to appear. Refer to information at About Latest Weather Observations and please check the disclaimer before using these data.